Terminal Aerodrome Forecast
Issued by NWS Quad Cities IA IL

Home | Current Version | Previous Version | Text Only | Print | Product List | Glossary On
Versions: 1 2 3 4 5 6 7 8 9 10 11 12 13 14 15
000
FTUS43 KDVN 251128
TAFDBQ
TAF
KDBQ 251128Z 2512/2612 15006KT P6SM BKN100
      TEMPO 2514/2516 6SM -SHRA BR BKN040
     FM251600 15012KT P6SM BKN040
     FM252100 18012G20KT P6SM -SHRA VCTS BKN050CB
     FM260200 17007KT 6SM BR BKN035=

USA.gov is the U.S. government's official web portal to all federal, state and local government web resources and services.